createdAt,value
2019-01-14T00:00:38.434Z,19.03
2019-01-14T00:01:38.068Z,19
2019-01-14T00:02:38.243Z,19
2019-01-14T00:03:39.146Z,19
2019-01-14T00:04:38.070Z,18.98
2019-01-14T00:05:38.242Z,18.98
2019-01-14T00:06:38.379Z,18.99
2019-01-14T00:07:38.713Z,18.99
2019-01-14T00:08:38.204Z,18.96
2019-01-14T00:09:38.643Z,18.97
2019-01-14T00:10:39.912Z,18.96
2019-01-14T00:11:38.091Z,18.96
2019-01-14T00:12:38.753Z,18.95
2019-01-14T00:13:38.066Z,18.96
2019-01-14T00:14:38.300Z,18.94
2019-01-14T00:15:38.472Z,18.92
2019-01-14T00:16:38.359Z,18.93
2019-01-14T00:17:38.133Z,18.93
2019-01-14T00:18:38.307Z,18.92
2019-01-14T00:19:38.391Z,18.88
2019-01-14T00:20:38.099Z,18.89
2019-01-14T00:21:38.239Z,18.89
2019-01-14T00:22:38.075Z,18.89
2019-01-14T00:23:38.178Z,18.89
2019-01-14T00:24:38.284Z,18.87
2019-01-14T00:25:38.082Z,18.88
2019-01-14T00:26:38.218Z,18.86
2019-01-14T00:27:38.233Z,18.87
2019-01-14T00:28:38.142Z,18.87
2019-01-14T00:29:38.248Z,18.85
2019-01-14T00:30:38.031Z,18.87
2019-01-14T00:31:38.381Z,18.84
2019-01-14T00:32:38.296Z,18.85
2019-01-14T00:33:38.235Z,18.84
2019-01-14T00:34:38.391Z,18.82
2019-01-14T00:35:38.310Z,18.84
2019-01-14T00:36:38.100Z,18.82
2019-01-14T00:37:38.223Z,18.82
2019-01-14T00:38:38.748Z,18.82
2019-01-14T00:39:38.110Z,18.82
2019-01-14T00:40:38.417Z,18.81
2019-01-14T00:41:38.040Z,18.82
2019-01-14T00:42:38.121Z,18.79
2019-01-14T00:43:38.132Z,18.79
2019-01-14T00:44:38.257Z,18.8
2019-01-14T00:45:38.096Z,18.79
2019-01-14T00:46:38.862Z,18.79
2019-01-14T00:47:37.951Z,18.78
2019-01-14T00:48:38.057Z,18.77
2019-01-14T00:49:38.236Z,18.77
2019-01-14T00:50:38.053Z,18.78
2019-01-14T00:51:38.143Z,18.76
2019-01-14T00:52:38.529Z,18.77
2019-01-14T00:53:38.097Z,18.74
2019-01-14T00:54:38.352Z,18.76
2019-01-14T00:55:38.053Z,18.73
2019-01-14T00:56:38.215Z,18.73
2019-01-14T00:57:38.194Z,18.73
2019-01-14T00:58:38.328Z,18.72
2019-01-14T00:59:38.413Z,18.72
2019-01-14T01:00:38.749Z,18.72
2019-01-14T01:01:38.321Z,18.72
2019-01-14T01:02:37.971Z,18.72
2019-01-14T01:03:38.108Z,18.71
2019-01-14T01:04:38.155Z,18.7
2019-01-14T01:05:39.758Z,18.7
2019-01-14T01:06:38.510Z,18.7
2019-01-14T01:07:38.053Z,18.7
2019-01-14T01:08:39.472Z,18.7
2019-01-14T01:09:38.140Z,18.69
2019-01-14T01:10:38.208Z,18.67
2019-01-14T01:11:38.013Z,18.68
2019-01-14T01:12:38.233Z,18.69
2019-01-14T01:13:38.773Z,18.67
2019-01-14T01:14:38.016Z,18.68
2019-01-14T01:15:38.132Z,18.67
2019-01-14T01:16:38.280Z,18.67
2019-01-14T01:17:38.152Z,18.66
2019-01-14T01:18:38.258Z,18.66
2019-01-14T01:19:38.728Z,18.66
2019-01-14T01:20:38.100Z,18.64
2019-01-14T01:21:38.457Z,18.65
2019-01-14T01:22:38.066Z,18.64
2019-01-14T01:23:38.342Z,18.64
2019-01-14T01:24:38.302Z,18.63
2019-01-14T01:25:38.056Z,18.63
2019-01-14T01:26:38.315Z,18.61
2019-01-14T01:27:38.956Z,18.62
2019-01-14T01:28:38.960Z,18.62
2019-01-14T01:29:38.709Z,18.62
2019-01-14T01:30:38.580Z,18.61
2019-01-14T01:31:38.112Z,18.61
2019-01-14T01:32:38.866Z,18.61
2019-01-14T01:33:38.371Z,18.61
2019-01-14T01:34:38.392Z,18.58
2019-01-14T01:35:38.196Z,18.59
2019-01-14T01:36:37.900Z,18.61
2019-01-14T01:37:38.229Z,18.57
2019-01-14T01:38:41.766Z,18.58
2019-01-14T01:39:38.015Z,18.58
2019-01-14T01:40:38.243Z,18.58
2019-01-14T01:41:38.195Z,18.56
2019-01-14T01:42:38.109Z,18.54
2019-01-14T01:43:38.531Z,18.57
2019-01-14T01:44:38.428Z,18.57
2019-01-14T01:45:38.212Z,18.54
2019-01-14T01:46:38.198Z,18.53
2019-01-14T01:47:38.291Z,18.55
2019-01-14T01:48:38.194Z,18.55
2019-01-14T01:49:38.218Z,18.55
2019-01-14T01:50:38.129Z,18.53
2019-01-14T01:51:38.183Z,18.55
2019-01-14T01:52:38.149Z,18.53
2019-01-14T01:53:38.254Z,18.52
2019-01-14T01:54:38.229Z,18.51
2019-01-14T01:55:38.449Z,18.51
2019-01-14T01:56:38.112Z,18.52
2019-01-14T01:57:37.977Z,18.5
2019-01-14T01:58:38.095Z,18.5
2019-01-14T01:59:38.133Z,18.5
2019-01-14T02:00:38.002Z,18.49
2019-01-14T02:01:38.096Z,18.49
2019-01-14T02:02:38.298Z,18.5
2019-01-14T02:03:38.320Z,18.49
2019-01-14T02:04:38.993Z,18.5
2019-01-14T02:05:38.030Z,18.49
2019-01-14T02:06:39.588Z,18.48
2019-01-14T02:07:38.200Z,18.48
2019-01-14T02:08:38.199Z,18.49
2019-01-14T02:09:38.061Z,18.46
2019-01-14T02:10:38.171Z,18.47
2019-01-14T02:11:38.015Z,18.44
2019-01-14T02:12:38.070Z,18.46
2019-01-14T02:13:38.192Z,18.46
2019-01-14T02:14:38.588Z,18.44
2019-01-14T02:15:38.142Z,18.43
2019-01-14T02:16:38.364Z,18.43
2019-01-14T02:17:38.509Z,18.44
2019-01-14T02:18:38.182Z,18.4
2019-01-14T02:19:38.401Z,18.42
2019-01-14T02:20:38.051Z,18.42
2019-01-14T02:21:38.066Z,18.42
2019-01-14T02:22:37.877Z,18.42
2019-01-14T02:23:37.954Z,18.41
2019-01-14T02:24:38.195Z,18.41
2019-01-14T02:25:37.888Z,18.41
2019-01-14T02:26:38.271Z,18.4
2019-01-14T02:27:38.289Z,18.41
2019-01-14T02:28:38.068Z,18.4
2019-01-14T02:29:38.045Z,18.41
2019-01-14T02:30:38.397Z,18.39
2019-01-14T02:31:37.895Z,18.38
2019-01-14T02:32:38.141Z,18.41
2019-01-14T02:33:38.118Z,18.37
2019-01-14T02:34:38.072Z,18.37
2019-01-14T02:35:38.072Z,18.37
2019-01-14T02:36:38.331Z,18.36
2019-01-14T02:37:38.281Z,18.39
2019-01-14T02:38:38.432Z,18.38
2019-01-14T02:39:38.381Z,18.36
2019-01-14T02:40:38.120Z,18.39
2019-01-14T02:41:38.362Z,18.37
2019-01-14T02:42:38.212Z,18.35
2019-01-14T02:43:38.306Z,18.36
2019-01-14T02:44:38.314Z,18.35
2019-01-14T02:45:38.266Z,18.35
2019-01-14T02:46:38.170Z,18.33
2019-01-14T02:47:39.971Z,18.34
2019-01-14T02:48:38.814Z,18.34
2019-01-14T02:49:38.249Z,18.33
2019-01-14T02:50:38.676Z,18.32
2019-01-14T02:51:38.085Z,18.34
2019-01-14T02:52:40.183Z,18.3
2019-01-14T02:53:38.394Z,18.3
2019-01-14T02:54:38.048Z,18.32
2019-01-14T02:55:38.181Z,18.33
2019-01-14T02:56:38.173Z,18.3
2019-01-14T02:57:38.080Z,18.33
2019-01-14T02:58:38.181Z,18.3
2019-01-14T02:59:38.298Z,18.29
2019-01-14T03:00:38.067Z,18.3
2019-01-14T03:01:38.419Z,18.29
2019-01-14T03:02:38.929Z,18.28
2019-01-14T03:03:38.301Z,18.29
2019-01-14T03:04:38.032Z,18.28
2019-01-14T03:05:37.915Z,18.27
2019-01-14T03:06:38.287Z,18.29
2019-01-14T03:07:38.166Z,18.28
2019-01-14T03:08:37.939Z,18.26
2019-01-14T03:09:38.574Z,18.28
2019-01-14T03:10:38.193Z,18.26
2019-01-14T03:11:38.018Z,18.27
2019-01-14T03:12:38.018Z,18.26
2019-01-14T03:13:37.885Z,18.26
2019-01-14T03:14:38.080Z,18.26
2019-01-14T03:15:38.174Z,18.24
2019-01-14T03:16:37.944Z,18.26
2019-01-14T03:17:38.177Z,18.25
2019-01-14T03:18:39.135Z,18.26
2019-01-14T03:19:37.979Z,18.26
2019-01-14T03:20:38.141Z,18.26
2019-01-14T03:21:38.436Z,18.23
2019-01-14T03:22:38.050Z,18.25
2019-01-14T03:23:38.032Z,18.24
2019-01-14T03:24:38.077Z,18.23
2019-01-14T03:25:37.972Z,18.22
2019-01-14T03:26:38.091Z,18.24
2019-01-14T03:27:38.129Z,18.23
2019-01-14T03:28:38.135Z,18.23
2019-01-14T03:29:38.195Z,18.22
2019-01-14T03:30:38.383Z,18.22
2019-01-14T03:31:38.336Z,18.22
2019-01-14T03:32:38.230Z,18.21
2019-01-14T03:33:37.879Z,18.21
2019-01-14T03:34:38.340Z,18.2
2019-01-14T03:35:38.371Z,18.2
2019-01-14T03:36:37.899Z,18.21
2019-01-14T03:37:38.364Z,18.2
2019-01-14T03:38:38.174Z,18.19
2019-01-14T03:39:38.290Z,18.2
2019-01-14T03:40:38.114Z,18.19
2019-01-14T03:41:39.981Z,18.19
2019-01-14T03:42:38.500Z,18.21
2019-01-14T03:43:38.515Z,18.19
2019-01-14T03:44:38.127Z,18.19
2019-01-14T03:45:38.520Z,18.18
2019-01-14T03:46:38.415Z,18.18
2019-01-14T03:47:38.174Z,18.17
2019-01-14T03:48:38.141Z,18.17
2019-01-14T03:49:38.214Z,18.17
2019-01-14T03:50:38.258Z,18.17
2019-01-14T03:51:38.458Z,18.18
2019-01-14T03:52:38.129Z,18.17
2019-01-14T03:53:38.196Z,18.18
2019-01-14T03:54:38.084Z,18.15
2019-01-14T03:55:38.290Z,18.15
2019-01-14T03:56:38.102Z,18.15
2019-01-14T03:57:37.967Z,18.13
2019-01-14T03:58:38.127Z,18.14
2019-01-14T03:59:38.079Z,18.12
2019-01-14T04:00:38.057Z,18.15
2019-01-14T04:01:38.369Z,18.14
2019-01-14T04:02:38.038Z,18.12
2019-01-14T04:03:37.958Z,18.15
2019-01-14T04:04:38.185Z,18.13
2019-01-14T04:05:38.142Z,18.13
2019-01-14T04:06:38.040Z,18.12
2019-01-14T04:07:38.112Z,18.12
2019-01-14T04:08:38.152Z,18.1
2019-01-14T04:09:38.291Z,18.13
2019-01-14T04:10:39.095Z,18.12
2019-01-14T04:11:38.014Z,18.12
2019-01-14T04:12:38.433Z,18.12
2019-01-14T04:13:38.374Z,18.11
2019-01-14T04:14:38.193Z,18.12
2019-01-14T04:15:38.036Z,18.1
2019-01-14T04:16:38.537Z,18.13
2019-01-14T04:17:38.055Z,18.11
2019-01-14T04:18:38.182Z,18.1
2019-01-14T04:19:38.161Z,18.1
2019-01-14T04:20:39.048Z,18.1
2019-01-14T04:21:38.138Z,18.1
2019-01-14T04:22:38.587Z,18.12
2019-01-14T04:23:38.367Z,18.08
2019-01-14T04:24:38.975Z,18.11
2019-01-14T04:25:38.538Z,18.1
2019-01-14T04:26:38.634Z,18.08
2019-01-14T04:27:38.423Z,18.09
2019-01-14T04:28:38.229Z,18.08
2019-01-14T04:29:38.171Z,18.06
2019-01-14T04:30:38.023Z,18.06
2019-01-14T04:31:38.250Z,18.09
2019-01-14T04:32:38.336Z,18.07
2019-01-14T04:33:38.672Z,18.06
2019-01-14T04:34:37.914Z,18.07
2019-01-14T04:35:38.362Z,18.08
2019-01-14T04:36:38.388Z,18.05
2019-01-14T04:37:38.006Z,18.05
2019-01-14T04:38:38.292Z,18.05
2019-01-14T04:39:38.288Z,18.05
2019-01-14T04:40:38.264Z,18.05
2019-01-14T04:41:38.245Z,18.06
2019-01-14T04:42:38.187Z,18.07
2019-01-14T04:43:37.934Z,18.04
2019-01-14T04:44:38.126Z,18.05
2019-01-14T04:45:38.091Z,18.04
2019-01-14T04:46:38.130Z,18.05
2019-01-14T04:47:38.484Z,18.04
2019-01-14T04:48:38.001Z,18.04
2019-01-14T04:49:38.081Z,18.06
2019-01-14T04:50:38.160Z,18.04
2019-01-14T04:51:38.470Z,18.07
2019-01-14T04:52:38.255Z,18.07
2019-01-14T04:53:39.971Z,18.07
2019-01-14T04:54:38.220Z,18.08
2019-01-14T04:55:38.053Z,18.08
2019-01-14T04:56:38.418Z,18.09
2019-01-14T04:57:37.964Z,18.1
2019-01-14T04:58:38.500Z,18.1
2019-01-14T04:59:38.151Z,18.12
2019-01-14T05:00:39.155Z,18.12
2019-01-14T05:01:38.078Z,18.13
2019-01-14T05:02:39.758Z,18.17
2019-01-14T05:03:37.967Z,18.15
2019-01-14T05:04:39.178Z,18.19
2019-01-14T05:05:38.317Z,18.19
2019-01-14T05:06:38.492Z,18.21
2019-01-14T05:07:38.815Z,18.23
2019-01-14T05:08:38.556Z,18.22
2019-01-14T05:09:38.297Z,18.25
2019-01-14T05:10:38.369Z,18.25
2019-01-14T05:11:38.003Z,18.26
2019-01-14T05:12:38.349Z,18.28
2019-01-14T05:13:38.203Z,18.29
2019-01-14T05:14:38.231Z,18.32
2019-01-14T05:15:38.064Z,18.32
2019-01-14T05:16:39.947Z,18.33
2019-01-14T05:17:38.487Z,18.36
2019-01-14T05:18:39.106Z,18.36
2019-01-14T05:19:38.218Z,18.37
2019-01-14T05:20:37.967Z,18.38
2019-01-14T05:21:38.277Z,18.41
2019-01-14T05:22:38.035Z,18.41
2019-01-14T05:23:37.924Z,18.41
2019-01-14T05:24:38.322Z,18.44
2019-01-14T05:25:38.321Z,18.44
2019-01-14T05:26:37.966Z,18.43
2019-01-14T05:27:38.539Z,18.47
2019-01-14T05:28:38.053Z,18.5
2019-01-14T05:29:38.000Z,18.52
2019-01-14T05:30:38.027Z,18.51
2019-01-14T05:31:38.065Z,18.52
2019-01-14T05:32:38.380Z,18.55
2019-01-14T05:33:38.286Z,18.57
2019-01-14T05:34:37.946Z,18.56
2019-01-14T05:35:38.062Z,18.57
2019-01-14T05:36:38.128Z,18.61
2019-01-14T05:37:38.430Z,18.62
2019-01-14T05:38:37.940Z,18.62
2019-01-14T05:39:38.756Z,18.65
2019-01-14T05:40:38.445Z,18.64
2019-01-14T05:41:38.043Z,18.65
2019-01-14T05:42:38.324Z,18.66
2019-01-14T05:43:38.235Z,18.67
2019-01-14T05:44:38.074Z,18.69
2019-01-14T05:45:38.546Z,18.69
2019-01-14T05:46:37.899Z,18.7
2019-01-14T05:47:38.257Z,18.72
2019-01-14T05:48:38.455Z,18.73
2019-01-14T05:49:37.818Z,18.76
2019-01-14T05:50:38.282Z,18.76
2019-01-14T05:51:38.314Z,18.78
2019-01-14T05:52:38.171Z,18.8
2019-01-14T05:53:38.064Z,18.8
2019-01-14T05:54:38.009Z,18.81
2019-01-14T05:55:38.054Z,18.82
2019-01-14T05:56:38.102Z,18.84
2019-01-14T05:57:37.840Z,18.83
2019-01-14T05:58:38.012Z,18.84
2019-01-14T05:59:38.128Z,18.87
2019-01-14T06:00:37.979Z,18.88
2019-01-14T06:01:37.949Z,18.89
2019-01-14T06:02:38.493Z,18.92
2019-01-14T06:03:38.006Z,18.92
2019-01-14T06:04:38.161Z,18.93
2019-01-14T06:05:37.774Z,18.94
2019-01-14T06:06:38.262Z,18.93
2019-01-14T06:07:45.387Z,18.98
2019-01-14T06:08:38.170Z,18.98
2019-01-14T06:09:37.843Z,18.99
2019-01-14T06:10:38.096Z,18.99
2019-01-14T06:11:38.347Z,19.03
2019-01-14T06:12:39.222Z,19.02
2019-01-14T06:13:38.282Z,19.02
2019-01-14T06:14:38.330Z,19.07
2019-01-14T06:15:37.995Z,19.09
2019-01-14T06:16:38.161Z,19.09
2019-01-14T06:17:38.217Z,19.11
2019-01-14T06:18:38.051Z,19.13
2019-01-14T06:19:38.027Z,19.13
2019-01-14T06:20:38.355Z,19.15
2019-01-14T06:21:38.047Z,19.16
2019-01-14T06:22:38.655Z,19.16
2019-01-14T06:23:37.993Z,19.17
2019-01-14T06:24:38.233Z,19.2
2019-01-14T06:25:38.404Z,19.21
2019-01-14T06:26:38.437Z,19.22
2019-01-14T06:27:37.927Z,19.22
2019-01-14T06:28:38.431Z,19.26
2019-01-14T06:29:38.009Z,19.25
2019-01-14T06:30:38.890Z,19.26
2019-01-14T06:31:38.118Z,19.29
2019-01-14T06:32:37.992Z,19.29
2019-01-14T06:33:38.015Z,19.29
2019-01-14T06:34:39.068Z,19.31
2019-01-14T06:35:38.392Z,19.32
2019-01-14T06:36:38.198Z,19.31
2019-01-14T06:37:37.916Z,19.32
2019-01-14T06:38:37.897Z,19.35
2019-01-14T06:39:38.471Z,19.36
2019-01-14T06:40:37.978Z,19.36
2019-01-14T06:41:38.286Z,19.36
2019-01-14T06:42:38.597Z,19.37
2019-01-14T06:43:37.947Z,19.38
2019-01-14T06:44:38.386Z,19.35
2019-01-14T06:45:37.994Z,19.39
2019-01-14T06:46:38.052Z,19.37
2019-01-14T06:47:38.084Z,19.38
2019-01-14T06:48:40.029Z,19.39
2019-01-14T06:49:38.394Z,19.39
2019-01-14T06:50:38.378Z,19.4
2019-01-14T06:51:38.006Z,19.39
2019-01-14T06:52:37.911Z,19.4
2019-01-14T06:53:37.956Z,19.4
2019-01-14T06:54:37.869Z,19.4
2019-01-14T06:55:38.032Z,19.41
2019-01-14T06:56:38.121Z,19.4
2019-01-14T06:57:37.997Z,19.41
2019-01-14T06:58:38.904Z,19.42
2019-01-14T06:59:38.381Z,19.43
2019-01-14T07:00:38.412Z,19.44
2019-01-14T07:01:38.052Z,19.43
2019-01-14T07:02:38.364Z,19.42
2019-01-14T07:03:38.122Z,19.44
2019-01-14T07:04:38.100Z,19.42
2019-01-14T07:05:38.065Z,19.44
2019-01-14T07:06:38.433Z,19.46
2019-01-14T07:07:38.088Z,19.45
2019-01-14T07:08:38.406Z,19.44
2019-01-14T07:09:38.383Z,19.44
2019-01-14T07:10:38.125Z,19.44
2019-01-14T07:11:39.009Z,19.45
2019-01-14T07:12:37.877Z,19.45
2019-01-14T07:13:38.702Z,19.48
2019-01-14T07:14:37.840Z,19.45
2019-01-14T07:15:38.017Z,19.45
2019-01-14T07:16:38.102Z,19.47
2019-01-14T07:17:38.323Z,19.47
2019-01-14T07:18:38.060Z,19.48
2019-01-14T07:19:38.412Z,19.51
2019-01-14T07:20:38.209Z,19.48
2019-01-14T07:21:37.900Z,19.51
2019-01-14T07:22:38.236Z,19.5
2019-01-14T07:23:38.667Z,19.53
2019-01-14T07:24:38.197Z,19.51
2019-01-14T07:25:38.128Z,19.51
2019-01-14T07:26:37.938Z,19.52
2019-01-14T07:27:38.023Z,19.52
2019-01-14T07:28:38.131Z,19.52
2019-01-14T07:29:38.256Z,19.52
2019-01-14T07:30:37.948Z,19.53
2019-01-14T07:31:37.878Z,19.54
2019-01-14T07:32:38.483Z,19.57
2019-01-14T07:33:37.954Z,19.55
2019-01-14T07:34:38.337Z,19.56
2019-01-14T07:35:37.929Z,19.55
2019-01-14T07:36:38.436Z,19.56
2019-01-14T07:37:38.256Z,19.57
2019-01-14T07:38:37.990Z,19.58
2019-01-14T07:39:38.089Z,19.58
2019-01-14T07:40:37.994Z,19.58
2019-01-14T07:41:37.871Z,19.59
2019-01-14T07:42:38.196Z,19.62
2019-01-14T07:43:37.805Z,19.59
2019-01-14T07:44:38.017Z,19.61
2019-01-14T07:45:38.199Z,19.62
2019-01-14T07:46:37.822Z,19.62
2019-01-14T07:47:38.029Z,19.62
2019-01-14T07:48:38.181Z,19.66
2019-01-14T07:49:38.191Z,19.63
2019-01-14T07:50:37.932Z,19.65
2019-01-14T07:51:39.286Z,19.65
2019-01-14T07:52:38.103Z,19.65
2019-01-14T07:53:38.022Z,19.65
2019-01-14T07:54:38.082Z,19.67
2019-01-14T07:55:38.205Z,19.69
2019-01-14T07:56:38.068Z,19.67
2019-01-14T07:57:38.238Z,19.67
2019-01-14T07:58:38.226Z,19.69
2019-01-14T07:59:38.354Z,19.7
2019-01-14T08:00:38.156Z,19.69
2019-01-14T08:01:38.248Z,19.7
2019-01-14T08:02:38.441Z,19.71
2019-01-14T08:03:38.193Z,19.7
2019-01-14T08:04:38.121Z,19.7
2019-01-14T08:05:38.776Z,19.71
2019-01-14T08:06:38.140Z,19.71
2019-01-14T08:07:38.168Z,19.74
2019-01-14T08:08:37.958Z,19.76
2019-01-14T08:09:38.340Z,19.82
2019-01-14T08:10:37.981Z,19.81
2019-01-14T08:11:38.878Z,19.82
2019-01-14T08:12:39.767Z,19.82
2019-01-14T08:13:38.473Z,19.84
2019-01-14T08:14:38.065Z,19.82
2019-01-14T08:15:38.057Z,19.84
2019-01-14T08:16:38.274Z,19.75
2019-01-14T08:17:38.075Z,19.71
2019-01-14T08:18:38.201Z,19.59
2019-01-14T08:19:38.619Z,19.45
2019-01-14T08:20:37.985Z,19.32
2019-01-14T08:21:37.941Z,19.22
2019-01-14T08:22:37.947Z,19.15
2019-01-14T08:23:38.611Z,19.03
2019-01-14T08:24:37.985Z,18.92
2019-01-14T08:25:38.191Z,18.86
2019-01-14T08:26:38.016Z,18.83
2019-01-14T08:27:38.313Z,18.83
2019-01-14T08:28:38.112Z,18.83
2019-01-14T08:29:37.861Z,18.83
2019-01-14T08:30:39.803Z,18.84
2019-01-14T08:31:38.828Z,18.86
2019-01-14T08:32:38.195Z,18.88
2019-01-14T08:33:38.476Z,18.89
2019-01-14T08:34:38.286Z,18.92
2019-01-14T08:35:38.401Z,18.94
2019-01-14T08:36:37.856Z,18.96
2019-01-14T08:37:38.302Z,18.97
2019-01-14T08:38:37.749Z,18.99
2019-01-14T08:39:38.102Z,19
2019-01-14T08:40:38.541Z,19.02
2019-01-14T08:41:38.083Z,19.01
2019-01-14T08:42:38.122Z,19.05
2019-01-14T08:43:37.809Z,19.05
2019-01-14T08:44:37.926Z,19.07
2019-01-14T08:45:37.967Z,19.08
2019-01-14T08:46:37.980Z,19.08
2019-01-14T08:47:38.014Z,19.1
2019-01-14T08:48:38.229Z,19.09
2019-01-14T08:49:38.034Z,19.11
2019-01-14T08:50:38.348Z,19.14
2019-01-14T08:51:38.013Z,19.13
2019-01-14T08:52:38.522Z,19.13
2019-01-14T08:53:37.938Z,19.13
2019-01-14T08:54:37.746Z,19.13
2019-01-14T08:55:37.848Z,19.12
2019-01-14T08:56:39.040Z,19.15
2019-01-14T08:57:38.154Z,19.14
2019-01-14T08:58:38.105Z,19.14
2019-01-14T08:59:38.124Z,19.15
2019-01-14T09:00:37.892Z,19.14
2019-01-14T09:01:39.736Z,19.13
2019-01-14T09:02:38.721Z,19.16
2019-01-14T09:03:38.045Z,19.15
2019-01-14T09:04:38.289Z,19.14
2019-01-14T09:05:38.359Z,19.16
2019-01-14T09:06:37.957Z,19.13
2019-01-14T09:07:38.179Z,19.15
2019-01-14T09:08:38.419Z,19.14
2019-01-14T09:09:38.127Z,19.05
2019-01-14T09:10:38.623Z,18.99
2019-01-14T09:11:39.874Z,19
2019-01-14T09:12:37.917Z,18.97
2019-01-14T09:13:38.062Z,18.95
2019-01-14T09:14:37.881Z,18.92
2019-01-14T09:15:38.245Z,18.87
2019-01-14T09:16:38.363Z,18.85
2019-01-14T09:17:37.963Z,18.84
2019-01-14T09:18:38.037Z,18.82
2019-01-14T09:19:38.364Z,18.79
2019-01-14T09:20:37.913Z,18.78
2019-01-14T09:21:38.672Z,18.77
2019-01-14T09:22:38.372Z,18.71
2019-01-14T09:23:38.018Z,18.69
2019-01-14T09:24:37.925Z,18.69
2019-01-14T09:25:39.862Z,18.68
2019-01-14T09:26:38.020Z,18.64
2019-01-14T09:27:38.016Z,18.62
2019-01-14T09:28:38.169Z,18.57
2019-01-14T09:29:38.303Z,18.59
2019-01-14T09:30:37.951Z,18.57
2019-01-14T09:31:38.032Z,18.53
2019-01-14T09:32:38.172Z,18.55
2019-01-14T09:33:38.445Z,18.51
2019-01-14T09:34:37.888Z,18.51
2019-01-14T09:35:38.085Z,18.49
2019-01-14T09:36:38.604Z,18.44
2019-01-14T09:37:37.895Z,18.44
2019-01-14T09:38:37.863Z,18.46
2019-01-14T09:39:38.041Z,18.48
2019-01-14T09:40:38.072Z,18.5
2019-01-14T09:41:38.053Z,18.51
2019-01-14T09:42:38.145Z,18.55
2019-01-14T09:43:38.078Z,18.59
2019-01-14T09:44:37.929Z,18.62
2019-01-14T09:45:38.497Z,18.58
2019-01-14T09:46:38.117Z,18.57
2019-01-14T09:47:38.213Z,18.53
2019-01-14T09:48:37.970Z,18.5
2019-01-14T09:49:37.824Z,18.47
2019-01-14T09:50:38.004Z,18.48
2019-01-14T09:51:38.037Z,18.47
2019-01-14T09:52:37.817Z,18.48
2019-01-14T09:53:37.989Z,18.48
2019-01-14T09:54:38.353Z,18.49
2019-01-14T09:55:38.269Z,18.5
2019-01-14T09:56:37.991Z,18.53
2019-01-14T09:57:38.046Z,18.52
2019-01-14T09:58:38.996Z,18.49
2019-01-14T09:59:37.864Z,18.49
2019-01-14T10:00:37.977Z,18.46
2019-01-14T10:01:38.299Z,18.43
2019-01-14T10:02:39.617Z,18.41
2019-01-14T10:03:38.104Z,18.41
2019-01-14T10:04:37.929Z,18.41
2019-01-14T10:05:38.312Z,18.43
2019-01-14T10:06:38.208Z,18.43
2019-01-14T10:07:38.695Z,18.43
2019-01-14T10:08:43.534Z,18.46
2019-01-14T10:09:37.827Z,18.44
2019-01-14T10:10:38.025Z,18.49
2019-01-14T10:11:38.112Z,18.51
2019-01-14T10:12:38.102Z,18.51
2019-01-14T10:13:38.104Z,18.51
2019-01-14T10:14:38.050Z,18.53
2019-01-14T10:15:38.237Z,18.53
2019-01-14T10:16:38.089Z,18.56
2019-01-14T10:17:38.195Z,18.56
2019-01-14T10:18:37.935Z,18.61
2019-01-14T10:19:38.027Z,18.62
2019-01-14T10:20:38.354Z,18.62
2019-01-14T10:21:38.218Z,18.62
2019-01-14T10:22:38.042Z,18.62
2019-01-14T10:23:37.850Z,18.63
2019-01-14T10:24:38.132Z,18.65
2019-01-14T10:25:38.108Z,18.63
2019-01-14T10:26:37.883Z,18.67
2019-01-14T10:27:37.792Z,18.66
2019-01-14T10:28:37.992Z,18.69
2019-01-14T10:29:38.173Z,18.68
2019-01-14T10:30:37.987Z,18.67
2019-01-14T10:31:38.007Z,18.67
2019-01-14T10:32:38.007Z,18.7
2019-01-14T10:33:38.607Z,18.7
2019-01-14T10:34:37.912Z,18.7
2019-01-14T10:35:38.064Z,18.71
2019-01-14T10:36:37.808Z,18.73
2019-01-14T10:37:38.292Z,18.74
2019-01-14T10:38:38.085Z,18.72
2019-01-14T10:39:38.278Z,18.7
2019-01-14T10:40:38.313Z,18.68
2019-01-14T10:41:38.231Z,18.64
2019-01-14T10:42:38.016Z,18.62
2019-01-14T10:43:37.735Z,18.55
2019-01-14T10:44:37.957Z,18.54
2019-01-14T10:45:39.864Z,18.52
2019-01-14T10:46:37.918Z,18.51
2019-01-14T10:47:38.340Z,18.49
2019-01-14T10:48:38.304Z,18.49
2019-01-14T10:49:38.534Z,18.51
2019-01-14T10:50:37.933Z,18.52
2019-01-14T10:51:38.177Z,18.51
2019-01-14T10:52:38.224Z,18.53
2019-01-14T10:53:38.090Z,18.54
2019-01-14T10:54:38.113Z,18.56
2019-01-14T10:55:38.862Z,18.55
2019-01-14T10:56:37.968Z,18.57
2019-01-14T10:57:38.301Z,18.57
2019-01-14T10:58:38.544Z,18.58
2019-01-14T10:59:38.090Z,18.59
2019-01-14T11:00:38.165Z,18.59
2019-01-14T11:01:38.194Z,18.62
2019-01-14T11:02:38.178Z,18.62
2019-01-14T11:03:38.079Z,18.63
2019-01-14T11:04:38.262Z,18.63
2019-01-14T11:05:38.166Z,18.63
2019-01-14T11:06:37.864Z,18.65
2019-01-14T11:07:38.007Z,18.64
2019-01-14T11:08:38.673Z,18.65
2019-01-14T11:09:37.948Z,18.65
2019-01-14T11:10:37.974Z,18.65
2019-01-14T11:11:37.936Z,18.65
2019-01-14T11:12:38.104Z,18.66
2019-01-14T11:13:37.865Z,18.66
2019-01-14T11:14:38.024Z,18.67
2019-01-14T11:15:37.958Z,18.68
2019-01-14T11:16:37.844Z,18.66
2019-01-14T11:17:38.088Z,18.69
2019-01-14T11:18:37.834Z,18.7
2019-01-14T11:19:37.990Z,18.71
2019-01-14T11:20:37.811Z,18.7
2019-01-14T11:21:37.906Z,18.69
2019-01-14T11:22:37.970Z,18.65
2019-01-14T11:23:38.081Z,18.68
2019-01-14T11:24:37.846Z,18.71
2019-01-14T11:25:37.870Z,18.69
2019-01-14T11:26:37.717Z,18.67
2019-01-14T11:27:37.817Z,18.72
2019-01-14T11:28:37.969Z,18.7
2019-01-14T11:29:37.902Z,18.72
2019-01-14T11:30:37.864Z,18.72
2019-01-14T11:31:39.742Z,18.73
2019-01-14T11:32:37.703Z,18.76
2019-01-14T11:33:38.926Z,18.77
2019-01-14T11:34:37.902Z,18.77
2019-01-14T11:35:37.888Z,18.78
2019-01-14T11:36:38.095Z,18.8
2019-01-14T11:37:38.170Z,18.81
2019-01-14T11:38:37.869Z,18.82
2019-01-14T11:39:37.926Z,18.84
2019-01-14T11:40:37.943Z,18.85
2019-01-14T11:41:37.781Z,18.88
2019-01-14T11:42:38.199Z,18.88
2019-01-14T11:43:37.897Z,18.91
2019-01-14T11:44:37.803Z,18.93
2019-01-14T11:45:38.521Z,18.95
2019-01-14T11:46:37.882Z,18.97
2019-01-14T11:47:37.727Z,18.99
2019-01-14T11:48:38.062Z,19.01
2019-01-14T11:49:37.753Z,19.03
2019-01-14T11:50:37.846Z,19.05
2019-01-14T11:51:38.044Z,19.07
2019-01-14T11:52:38.015Z,19.07
2019-01-14T11:53:38.009Z,19.09
2019-01-14T11:54:38.143Z,19.11
2019-01-14T11:55:37.840Z,19.13
2019-01-14T11:56:38.037Z,19.13
2019-01-14T11:57:38.042Z,19.16
2019-01-14T11:58:37.890Z,19.16
2019-01-14T11:59:38.285Z,19.18
2019-01-14T12:00:38.032Z,19.2
2019-01-14T12:01:37.886Z,19.23
2019-01-14T12:02:40.147Z,19.24
2019-01-14T12:03:38.091Z,19.25
2019-01-14T12:04:38.638Z,19.26
2019-01-14T12:05:38.218Z,19.26
2019-01-14T12:06:38.514Z,19.29
2019-01-14T12:07:38.041Z,19.29
2019-01-14T12:08:37.904Z,19.3
2019-01-14T12:09:37.743Z,19.31
2019-01-14T12:10:38.183Z,19.32
2019-01-14T12:11:37.938Z,19.32
2019-01-14T12:12:39.682Z,19.35
2019-01-14T12:13:38.334Z,19.36
2019-01-14T12:14:37.865Z,19.37
2019-01-14T12:15:38.266Z,19.38
2019-01-14T12:16:38.402Z,19.4
2019-01-14T12:17:37.979Z,19.41
2019-01-14T12:18:37.900Z,19.42
2019-01-14T12:19:37.911Z,19.44
2019-01-14T12:20:38.463Z,19.44
2019-01-14T12:21:37.836Z,19.43
2019-01-14T12:22:39.472Z,19.45
2019-01-14T12:23:37.990Z,19.48
2019-01-14T12:24:37.938Z,19.5
2019-01-14T12:25:38.152Z,19.51
2019-01-14T12:26:37.839Z,19.51
2019-01-14T12:27:37.961Z,19.52
2019-01-14T12:28:38.372Z,19.51
2019-01-14T12:29:38.140Z,19.53
2019-01-14T12:30:37.926Z,19.53
2019-01-14T12:31:38.333Z,19.53
2019-01-14T12:32:37.882Z,19.56
2019-01-14T12:33:37.835Z,19.56
2019-01-14T12:34:38.170Z,19.57
2019-01-14T12:35:38.058Z,19.57
2019-01-14T12:36:37.937Z,19.58
2019-01-14T12:37:38.192Z,19.59
2019-01-14T12:38:38.318Z,19.58
2019-01-14T12:39:38.281Z,19.62
2019-01-14T12:40:37.785Z,19.62
2019-01-14T12:41:37.807Z,19.65
2019-01-14T12:42:37.886Z,19.65
2019-01-14T12:43:37.877Z,19.66
2019-01-14T12:44:38.240Z,19.67
2019-01-14T12:45:37.979Z,19.67
2019-01-14T12:46:38.117Z,19.66
2019-01-14T12:47:39.854Z,19.68
2019-01-14T12:48:38.027Z,19.69
2019-01-14T12:49:37.947Z,19.71
2019-01-14T12:50:38.830Z,19.7
2019-01-14T12:51:37.742Z,19.71
2019-01-14T12:52:37.836Z,19.71
2019-01-14T12:53:38.034Z,19.7
2019-01-14T12:54:38.065Z,19.69
2019-01-14T12:55:37.833Z,19.7